createdAt,value
2018-08-07T00:00:09.856Z,64.70
2018-08-07T00:02:38.717Z,64.40
2018-08-07T00:05:07.632Z,64.50
2018-08-07T00:07:36.324Z,64.80
2018-08-07T00:10:06.373Z,64.80
2018-08-07T00:12:35.048Z,64.90
2018-08-07T00:15:04.775Z,65.00
2018-08-07T00:17:33.630Z,64.90
2018-08-07T00:20:02.480Z,65.10
2018-08-07T00:22:31.300Z,65.10
2018-08-07T00:25:00.311Z,65.00
2018-08-07T00:27:29.036Z,65.20
2018-08-07T00:29:57.915Z,65.30
2018-08-07T00:32:26.656Z,65.30
2018-08-07T00:34:55.064Z,65.30
2018-08-07T00:37:23.646Z,65.40
2018-08-07T00:39:52.314Z,65.30
2018-08-07T00:42:20.786Z,65.40
2018-08-07T00:44:49.710Z,65.70
2018-08-07T00:47:18.606Z,65.60
2018-08-07T00:49:47.450Z,65.80
2018-08-07T00:52:15.918Z,66.00
2018-08-07T00:54:44.874Z,66.10
2018-08-07T00:57:13.632Z,66.20
2018-08-07T00:59:42.368Z,66.50
2018-08-07T01:02:11.156Z,66.60
2018-08-07T01:04:39.652Z,66.70
2018-08-07T01:07:08.539Z,66.60
2018-08-07T01:09:37.327Z,66.80
2018-08-07T01:12:06.252Z,67.20
2018-08-07T01:14:34.652Z,67.20
2018-08-07T01:17:02.993Z,68.10
2018-08-07T01:19:31.911Z,67.40
2018-08-07T01:24:30.569Z,67.20
2018-08-07T01:26:58.948Z,67.60
2018-08-07T01:29:29.782Z,67.40
2018-08-07T01:31:58.180Z,67.50
2018-08-07T01:34:28.324Z,67.70
2018-08-07T01:36:57.077Z,68.00
2018-08-07T01:39:25.712Z,68.20
2018-08-07T01:41:54.408Z,68.20
2018-08-07T01:44:23.245Z,68.20
2018-08-07T01:46:52.042Z,68.10
2018-08-07T01:49:20.749Z,68.40
2018-08-07T01:51:49.602Z,68.80
2018-08-07T01:54:18.159Z,68.70
2018-08-07T01:56:46.985Z,68.60
2018-08-07T01:59:15.788Z,68.70
2018-08-07T02:01:44.515Z,69.10
2018-08-07T02:04:13.216Z,69.30
2018-08-07T02:09:10.161Z,69.70
2018-08-07T02:11:38.939Z,69.50
2018-08-07T02:14:07.921Z,69.90
2018-08-07T02:16:36.473Z,70.20
2018-08-07T02:19:05.061Z,70.20
2018-08-07T02:21:33.427Z,70.40
2018-08-07T02:24:01.953Z,70.60
2018-08-07T02:26:30.848Z,70.60
2018-08-07T02:28:59.517Z,70.60
2018-08-07T02:31:28.352Z,70.60
2018-08-07T02:33:57.201Z,70.60
2018-08-07T02:36:25.909Z,70.90
2018-08-07T02:38:54.612Z,71.10
2018-08-07T02:41:23.467Z,71.40
2018-08-07T02:43:52.158Z,71.40
2018-08-07T02:46:20.935Z,71.50
2018-08-07T02:48:49.667Z,71.40
2018-08-07T02:51:17.960Z,71.40
2018-08-07T02:53:46.307Z,71.50
2018-08-07T02:56:14.868Z,71.60
2018-08-07T02:58:43.565Z,71.60
2018-08-07T03:01:12.483Z,71.70
2018-08-07T03:03:41.480Z,71.90
2018-08-07T03:06:09.920Z,71.90
2018-08-07T03:08:38.320Z,72.00
2018-08-07T03:11:08.434Z,72.00
2018-08-07T03:13:36.784Z,72.10
2018-08-07T03:16:05.868Z,72.30
2018-08-07T03:18:34.323Z,72.40
2018-08-07T03:21:03.221Z,72.80
2018-08-07T03:23:31.597Z,72.90
2018-08-07T03:26:00.498Z,72.80
2018-08-07T03:28:29.208Z,73.00
2018-08-07T03:30:57.848Z,73.00
2018-08-07T03:33:26.764Z,72.80
2018-08-07T03:35:55.366Z,72.90
2018-08-07T03:38:23.818Z,73.10
2018-08-07T03:40:52.522Z,73.40
2018-08-07T03:43:21.044Z,73.40
2018-08-07T03:45:49.336Z,73.50
2018-08-07T03:48:18.088Z,73.60
2018-08-07T03:50:46.456Z,73.60
2018-08-07T03:53:14.935Z,73.70
2018-08-07T03:55:43.505Z,73.80
2018-08-07T03:58:11.909Z,74.00
2018-08-07T04:00:45.715Z,74.10
2018-08-07T04:03:14.143Z,74.10
2018-08-07T04:05:42.581Z,74.30
2018-08-07T04:08:10.948Z,74.40
2018-08-07T04:10:39.660Z,74.50
2018-08-07T04:13:08.441Z,74.50
2018-08-07T04:15:37.161Z,74.60
2018-08-07T04:18:05.583Z,74.60
2018-08-07T04:20:34.007Z,74.70
2018-08-07T04:23:02.762Z,74.70
2018-08-07T04:25:31.712Z,74.70
2018-08-07T04:28:00.469Z,74.80
2018-08-07T04:30:29.035Z,75.20
2018-08-07T04:32:57.508Z,75.30
2018-08-07T04:35:25.967Z,75.60
2018-08-07T04:37:54.355Z,75.70
2018-08-07T04:40:23.272Z,75.70
2018-08-07T04:42:51.898Z,75.70
2018-08-07T04:45:20.631Z,75.70
2018-08-07T04:47:49.052Z,75.90
2018-08-07T04:50:17.871Z,76.00
2018-08-07T04:52:46.856Z,76.30
2018-08-07T04:55:15.732Z,76.40
2018-08-07T04:57:44.554Z,76.50
2018-08-07T05:00:15.496Z,76.50
2018-08-07T05:02:44.935Z,77.50
2018-08-07T05:05:13.727Z,76.30
2018-08-07T05:07:42.486Z,76.80
2018-08-07T05:10:13.300Z,76.70
2018-08-07T05:12:42.761Z,76.90
2018-08-07T05:15:12.095Z,76.90
2018-08-07T05:17:42.022Z,77.30
2018-08-07T05:20:10.623Z,77.40
2018-08-07T05:22:39.705Z,77.60
2018-08-07T05:25:09.630Z,77.80
2018-08-07T05:27:38.252Z,77.80
2018-08-07T05:30:08.336Z,77.90
2018-08-07T05:32:36.859Z,77.90
2018-08-07T05:35:05.596Z,78.00
2018-08-07T05:37:34.185Z,78.10
2018-08-07T05:40:03.053Z,78.00
2018-08-07T05:42:31.916Z,78.00
2018-08-07T05:45:00.256Z,78.30
2018-08-07T05:47:28.709Z,78.50
2018-08-07T05:49:57.059Z,78.60
2018-08-07T05:52:25.680Z,79.10
2018-08-07T05:54:54.185Z,79.70
2018-08-07T05:57:22.571Z,80.00
2018-08-07T05:59:51.485Z,80.20
2018-08-07T06:02:20.433Z,80.40
2018-08-07T06:04:48.902Z,80.60
2018-08-07T06:07:17.290Z,81.20
2018-08-07T06:09:46.059Z,82.00
2018-08-07T06:12:14.860Z,81.40
2018-08-07T06:14:48.856Z,81.20
2018-08-07T06:17:17.439Z,80.50
2018-08-07T06:19:46.121Z,80.50
2018-08-07T06:22:14.672Z,80.00
2018-08-07T06:24:43.259Z,79.70
2018-08-07T06:27:11.640Z,80.40
2018-08-07T06:29:39.999Z,80.40
2018-08-07T06:32:08.658Z,80.80
2018-08-07T06:34:37.093Z,81.50
2018-08-07T06:37:06.147Z,81.50
2018-08-07T06:39:34.982Z,81.40
2018-08-07T06:42:03.480Z,80.90
2018-08-07T06:44:32.466Z,80.60
2018-08-07T06:47:00.991Z,80.90
2018-08-07T06:49:31.124Z,80.50
2018-08-07T06:51:59.922Z,80.50
2018-08-07T06:54:30.163Z,80.60
2018-08-07T06:56:59.148Z,80.70
2018-08-07T06:59:27.676Z,80.60
2018-08-07T07:01:56.152Z,81.20
2018-08-07T07:04:25.037Z,79.60
2018-08-07T07:06:53.527Z,79.70
2018-08-07T07:09:22.326Z,79.70
2018-08-07T07:11:51.300Z,79.60
2018-08-07T07:14:32.233Z,79.50
2018-08-07T07:19:30.864Z,78.90
2018-08-07T07:21:59.679Z,78.50
2018-08-07T07:24:28.068Z,77.90
2018-08-07T07:26:56.500Z,78.30
2018-08-07T07:29:24.983Z,78.40
2018-08-07T07:34:21.997Z,78.40
2018-08-07T07:36:50.449Z,78.50
2018-08-07T07:39:18.858Z,78.20
2018-08-07T07:41:47.629Z,78.30
2018-08-07T07:44:16.356Z,79.00
2018-08-07T07:46:44.922Z,78.60
2018-08-07T07:49:13.345Z,78.90
2018-08-07T07:51:41.800Z,79.30
2018-08-07T07:54:10.256Z,79.20
2018-08-07T07:56:39.288Z,78.20
2018-08-07T07:59:08.035Z,78.80
2018-08-07T08:01:36.505Z,79.20
2018-08-07T08:04:05.030Z,78.70
2018-08-07T08:06:33.548Z,79.10
2018-08-07T08:09:02.019Z,79.40
2018-08-07T08:11:30.609Z,78.70
2018-08-07T08:13:59.111Z,78.30
2018-08-07T08:18:56.147Z,78.80
2018-08-07T08:21:24.715Z,78.60
2018-08-07T08:23:53.009Z,78.60
2018-08-07T08:26:21.852Z,78.40
2018-08-07T08:28:50.430Z,78.80
2018-08-07T08:31:19.124Z,78.00
2018-08-07T08:36:16.029Z,77.60
2018-08-07T08:38:45.024Z,77.70
2018-08-07T08:41:13.839Z,78.20
2018-08-07T08:43:42.506Z,77.60
2018-08-07T08:46:10.879Z,78.00
2018-08-07T08:48:39.390Z,78.20
2018-08-07T08:51:07.912Z,77.40
2018-08-07T08:53:36.572Z,76.90
2018-08-07T08:56:05.263Z,76.30
2018-08-07T08:58:34.225Z,75.80
2018-08-07T09:01:03.171Z,76.00
2018-08-07T09:03:31.561Z,76.10
2018-08-07T09:06:00.390Z,76.30
2018-08-07T09:08:29.279Z,76.10
2018-08-07T09:10:58.177Z,75.00
2018-08-07T09:13:26.765Z,75.30
2018-08-07T09:15:55.758Z,75.00
2018-08-07T09:18:24.176Z,75.10
2018-08-07T09:20:52.671Z,73.40
2018-08-07T09:23:21.055Z,73.50
2018-08-07T09:25:49.983Z,74.30
2018-08-07T09:28:18.786Z,74.00
2018-08-07T09:30:47.425Z,73.60
2018-08-07T09:33:15.958Z,72.80
2018-08-07T09:35:44.415Z,72.90
2018-08-07T09:38:12.784Z,71.90
2018-08-07T09:40:41.617Z,71.80
2018-08-07T09:43:10.101Z,72.90
2018-08-07T09:45:38.567Z,71.50
2018-08-07T09:48:12.402Z,71.80
2018-08-07T09:50:41.031Z,72.00
2018-08-07T09:53:09.628Z,72.30
2018-08-07T09:55:38.311Z,73.40
2018-08-07T10:00:40.949Z,71.30
2018-08-07T10:03:11.282Z,69.80
2018-08-07T10:05:39.992Z,67.80
2018-08-07T10:08:08.771Z,66.40
2018-08-07T10:10:37.778Z,65.90
2018-08-07T10:13:06.589Z,66.20
2018-08-07T10:15:38.161Z,66.60
2018-08-07T10:18:06.847Z,67.50
2018-08-07T10:20:35.221Z,68.30
2018-08-07T10:23:04.011Z,69.70
2018-08-07T10:25:32.419Z,68.80
2018-08-07T10:28:00.805Z,67.80
2018-08-07T10:30:29.744Z,68.00
2018-08-07T10:32:58.515Z,67.30
2018-08-07T10:35:27.398Z,67.30
2018-08-07T10:37:55.885Z,68.30
2018-08-07T10:40:26.822Z,68.30
2018-08-07T10:42:55.409Z,67.20
2018-08-07T10:45:25.396Z,68.00
2018-08-07T10:47:54.048Z,65.80
2018-08-07T10:50:26.056Z,65.60
2018-08-07T10:52:55.084Z,63.40
2018-08-07T10:55:24.580Z,62.50
2018-08-07T10:57:54.575Z,62.20
2018-08-07T11:00:26.419Z,62.80
2018-08-07T11:02:55.408Z,62.80
2018-08-07T11:05:24.629Z,62.80
2018-08-07T11:07:53.431Z,61.20
2018-08-07T11:10:22.665Z,61.80
2018-08-07T11:12:51.561Z,62.10
2018-08-07T11:15:50.241Z,62.70
2018-08-07T11:18:18.739Z,61.80
2018-08-07T11:20:47.193Z,61.10
2018-08-07T11:23:15.673Z,62.10
2018-08-07T11:25:43.988Z,59.80
2018-08-07T11:28:12.776Z,59.60
2018-08-07T11:30:41.257Z,60.10
2018-08-07T11:33:10.060Z,59.10
2018-08-07T11:35:38.917Z,59.80
2018-08-07T11:38:07.722Z,59.10
2018-08-07T11:40:36.642Z,62.00
2018-08-07T11:43:05.323Z,60.80
2018-08-07T11:45:33.891Z,58.40
2018-08-07T11:48:02.475Z,58.60
2018-08-07T11:50:32.395Z,58.30
2018-08-07T11:53:01.107Z,58.00
2018-08-07T11:55:29.595Z,59.10
2018-08-07T11:57:58.455Z,57.30
2018-08-07T12:00:32.521Z,58.00
2018-08-07T12:03:01.100Z,58.60
2018-08-07T12:05:29.639Z,59.00
2018-08-07T12:07:58.107Z,58.10
2018-08-07T12:10:27.388Z,55.90
2018-08-07T12:12:56.188Z,55.90
2018-08-07T12:18:33.653Z,55.70
2018-08-07T12:21:02.361Z,55.60
2018-08-07T12:25:59.216Z,55.80
2018-08-07T12:28:28.043Z,56.10
2018-08-07T12:30:56.876Z,54.20
2018-08-07T12:33:25.436Z,54.00
2018-08-07T12:35:54.364Z,53.10
2018-08-07T12:38:22.904Z,54.80
2018-08-07T12:40:51.492Z,54.50
2018-08-07T12:43:20.204Z,53.90
2018-08-07T12:45:49.101Z,51.70
2018-08-07T12:48:17.579Z,51.00
2018-08-07T12:50:46.498Z,50.60
2018-08-07T12:53:15.619Z,49.30
2018-08-07T12:55:44.180Z,49.10
2018-08-07T12:58:12.606Z,50.00
2018-08-07T13:00:41.442Z,50.50
2018-08-07T13:03:10.136Z,49.70
2018-08-07T13:05:38.940Z,50.30
2018-08-07T13:08:07.507Z,50.70
2018-08-07T13:10:35.971Z,50.30
2018-08-07T13:13:04.876Z,50.50
2018-08-07T13:16:16.695Z,50.60
2018-08-07T13:18:45.130Z,49.10
2018-08-07T13:21:13.737Z,49.50
2018-08-07T13:23:42.230Z,52.80
2018-08-07T13:26:12.046Z,54.20
2018-08-07T13:28:40.803Z,54.90
2018-08-07T13:31:09.564Z,55.20
2018-08-07T13:33:38.421Z,55.60
2018-08-07T13:36:07.046Z,55.60
2018-08-07T13:38:35.629Z,55.20
2018-08-07T13:41:04.112Z,55.00
2018-08-07T13:43:32.605Z,54.60
2018-08-07T13:46:00.995Z,54.90
2018-08-07T13:48:29.536Z,54.50
2018-08-07T13:50:58.390Z,54.50
2018-08-07T13:53:27.308Z,55.20
2018-08-07T13:55:56.212Z,53.80
2018-08-07T13:58:24.975Z,54.40
2018-08-07T14:00:53.351Z,53.70
2018-08-07T14:03:21.979Z,53.90
2018-08-07T14:05:50.452Z,52.70
2018-08-07T14:08:19.021Z,52.80
2018-08-07T14:10:47.404Z,51.60
2018-08-07T14:13:16.211Z,52.50
2018-08-07T14:16:32.841Z,52.30
2018-08-07T14:19:01.675Z,51.00
2018-08-07T14:21:30.600Z,52.30
2018-08-07T14:24:01.681Z,52.10
2018-08-07T14:26:30.236Z,51.50
2018-08-07T14:28:58.978Z,50.70
2018-08-07T14:31:27.589Z,51.10
2018-08-07T14:33:56.140Z,51.00
2018-08-07T14:36:25.084Z,51.60
2018-08-07T14:38:53.857Z,52.20
2018-08-07T14:41:22.257Z,51.10
2018-08-07T14:43:50.877Z,50.50
2018-08-07T14:46:19.718Z,51.30
2018-08-07T14:48:48.660Z,50.90
2018-08-07T14:51:20.256Z,51.20
2018-08-07T14:53:49.112Z,51.80
2018-08-07T14:56:17.873Z,50.50
2018-08-07T14:58:46.613Z,49.70
2018-08-07T15:01:15.016Z,50.00
2018-08-07T15:03:43.713Z,49.50
2018-08-07T15:06:12.187Z,50.40
2018-08-07T15:08:41.008Z,49.10
2018-08-07T15:11:17.108Z,48.70
2018-08-07T15:13:45.599Z,48.10
2018-08-07T15:16:38.809Z,46.30
2018-08-07T15:19:07.585Z,46.00
2018-08-07T15:21:36.521Z,45.70
2018-08-07T15:24:05.190Z,45.20
2018-08-07T15:26:33.757Z,45.10
2018-08-07T15:29:02.669Z,44.50
2018-08-07T15:31:31.072Z,43.10
2018-08-07T15:33:59.447Z,43.20
2018-08-07T15:36:27.888Z,44.00
2018-08-07T15:38:56.785Z,42.50
2018-08-07T15:41:25.781Z,43.00
2018-08-07T15:43:54.820Z,42.70
2018-08-07T15:46:23.180Z,43.50
2018-08-07T15:48:51.687Z,42.90
2018-08-07T15:51:20.215Z,42.60
2018-08-07T15:53:48.972Z,43.20
2018-08-07T15:56:17.815Z,43.00
2018-08-07T15:58:46.536Z,43.00
2018-08-07T16:01:15.071Z,43.00
2018-08-07T16:03:43.613Z,43.40
2018-08-07T16:06:12.493Z,44.40
2018-08-07T16:08:40.967Z,44.10
2018-08-07T16:11:16.167Z,43.80
2018-08-07T16:13:44.599Z,43.40
2018-08-07T16:16:50.045Z,42.90
2018-08-07T16:19:18.417Z,42.80
2018-08-07T16:21:47.276Z,42.50
2018-08-07T16:24:16.687Z,42.40
2018-08-07T16:26:45.571Z,42.70
2018-08-07T16:29:14.918Z,43.00
2018-08-07T16:31:44.093Z,42.40
2018-08-07T16:34:13.762Z,42.10
2018-08-07T16:36:43.621Z,41.80
2018-08-07T16:39:13.119Z,41.80
2018-08-07T16:41:42.505Z,41.10
2018-08-07T16:44:11.899Z,42.20
2018-08-07T16:46:42.191Z,42.80
2018-08-07T16:49:11.487Z,42.60
2018-08-07T16:51:41.485Z,42.60
2018-08-07T16:54:10.770Z,42.40
2018-08-07T16:56:40.622Z,41.90
2018-08-07T16:59:09.855Z,42.30
2018-08-07T17:01:40.640Z,43.00
2018-08-07T17:04:10.999Z,43.90
2018-08-07T17:06:41.405Z,44.30
2018-08-07T17:09:12.676Z,43.80
2018-08-07T17:11:42.132Z,44.30
2018-08-07T17:14:15.842Z,44.90
2018-08-07T17:17:04.721Z,47.30
2018-08-07T17:19:35.352Z,49.40
2018-08-07T17:22:04.586Z,50.60
2018-08-07T17:24:35.323Z,51.40
2018-08-07T17:27:04.715Z,52.40
2018-08-07T17:29:34.631Z,53.50
2018-08-07T17:32:04.492Z,53.90
2018-08-07T17:34:34.675Z,54.60
2018-08-07T17:37:04.015Z,54.60
2018-08-07T17:39:34.609Z,54.60
2018-08-07T17:42:04.731Z,54.40
2018-08-07T17:44:35.544Z,54.10
2018-08-07T17:47:05.167Z,51.90
2018-08-07T17:49:35.503Z,51.20
2018-08-07T17:52:04.621Z,50.10
2018-08-07T17:54:35.113Z,50.20
2018-08-07T17:57:04.232Z,49.60
2018-08-07T17:59:34.155Z,49.90
2018-08-07T18:02:03.090Z,48.00
2018-08-07T18:04:33.488Z,46.00
2018-08-07T18:07:02.468Z,46.00
2018-08-07T18:09:32.665Z,47.10
2018-08-07T18:12:01.825Z,47.40
2018-08-07T18:14:56.261Z,48.40
2018-08-07T18:17:25.223Z,49.80
2018-08-07T18:22:22.513Z,51.00
2018-08-07T18:24:51.916Z,51.20
2018-08-07T18:27:21.145Z,51.50
2018-08-07T18:29:49.891Z,51.60
2018-08-07T18:32:18.999Z,51.90
2018-08-07T18:34:47.795Z,52.40
2018-08-07T18:37:17.820Z,52.30
2018-08-07T18:39:46.697Z,52.80
2018-08-07T18:42:15.851Z,53.40
2018-08-07T18:44:45.274Z,53.60
2018-08-07T18:47:15.152Z,53.70
2018-08-07T18:49:44.447Z,54.10
2018-08-07T18:52:13.692Z,54.20
2018-08-07T18:54:42.876Z,54.30
2018-08-07T18:57:12.379Z,54.60
2018-08-07T18:59:42.439Z,54.80
2018-08-07T19:02:11.806Z,54.80
2018-08-07T19:04:41.167Z,55.20
2018-08-07T19:07:10.903Z,55.60
2018-08-07T19:09:40.442Z,55.80
2018-08-07T19:12:10.603Z,55.90
2018-08-07T19:15:17.968Z,56.00
2018-08-07T19:17:47.881Z,56.30
2018-08-07T19:20:19.588Z,56.70
2018-08-07T19:22:49.622Z,56.80
2018-08-07T19:25:19.426Z,56.90
2018-08-07T19:27:49.014Z,57.20
2018-08-07T19:30:21.218Z,56.90
2018-08-07T19:32:50.591Z,57.00
2018-08-07T19:35:20.885Z,57.70
2018-08-07T19:37:50.749Z,57.30
2018-08-07T19:40:22.462Z,57.40
2018-08-07T19:42:52.512Z,57.60
2018-08-07T19:45:22.791Z,57.60
2018-08-07T19:47:52.088Z,58.00
2018-08-07T19:50:22.734Z,57.90
2018-08-07T19:52:53.061Z,58.00
2018-08-07T19:55:23.395Z,58.20
2018-08-07T19:57:52.686Z,57.90
2018-08-07T20:00:25.332Z,57.80
2018-08-07T20:02:55.092Z,58.10
2018-08-07T20:05:25.419Z,58.20
2018-08-07T20:07:55.975Z,58.20
2018-08-07T20:10:25.307Z,58.20
2018-08-07T20:12:55.039Z,57.90
2018-08-07T20:16:08.239Z,57.90
2018-08-07T20:18:38.412Z,57.70
2018-08-07T20:21:08.594Z,57.40
2018-08-07T20:23:37.955Z,57.70
2018-08-07T20:29:30.037Z,57.90
2018-08-07T20:32:00.036Z,57.80
2018-08-07T20:34:30.289Z,57.60
2018-08-07T20:37:00.292Z,57.90
2018-08-07T20:39:29.440Z,57.40
2018-08-07T20:41:58.794Z,57.50
2018-08-07T20:44:29.001Z,57.30
2018-08-07T20:46:59.064Z,57.40
2018-08-07T20:49:28.311Z,57.00
2018-08-07T20:51:58.209Z,56.90
2018-08-07T20:54:27.531Z,56.80
2018-08-07T20:56:56.751Z,56.80
2018-08-07T20:59:26.243Z,56.70
2018-08-07T21:01:55.456Z,56.70
2018-08-07T21:04:24.561Z,56.50
2018-08-07T21:06:53.679Z,56.50
2018-08-07T21:09:22.807Z,56.50
2018-08-07T21:11:51.820Z,56.50
2018-08-07T21:14:38.478Z,56.50
2018-08-07T21:17:27.403Z,56.80
2018-08-07T21:19:56.121Z,56.10
2018-08-07T21:22:25.081Z,57.00
2018-08-07T21:24:53.636Z,56.80
2018-08-07T21:27:22.231Z,57.20
2018-08-07T21:29:50.776Z,57.60
2018-08-07T21:32:19.655Z,57.70
2018-08-07T21:34:48.122Z,57.60
2018-08-07T21:37:17.027Z,57.10
2018-08-07T21:39:45.559Z,57.60
2018-08-07T21:42:14.536Z,57.80
2018-08-07T21:44:43.237Z,57.30
2018-08-07T21:47:11.867Z,57.10
2018-08-07T21:49:40.865Z,57.70
2018-08-07T21:52:09.776Z,57.90
2018-08-07T21:54:38.769Z,58.10
2018-08-07T21:57:07.416Z,58.00
2018-08-07T21:59:37.224Z,58.40
2018-08-07T22:02:06.391Z,58.40
2018-08-07T22:04:36.305Z,58.50
2018-08-07T22:07:04.923Z,59.20
2018-08-07T22:09:34.942Z,59.00
2018-08-07T22:12:03.482Z,59.20
2018-08-07T22:14:33.625Z,60.20
2018-08-07T22:17:02.180Z,60.70
2018-08-07T22:19:30.658Z,61.50
2018-08-07T22:21:59.360Z,61.80
2018-08-07T22:24:27.757Z,61.70
2018-08-07T22:26:56.247Z,61.60
2018-08-07T22:29:24.691Z,61.70
2018-08-07T22:31:53.104Z,62.30
2018-08-07T22:34:21.969Z,62.60
2018-08-07T22:36:50.415Z,62.60
2018-08-07T22:39:19.116Z,62.50
2018-08-07T22:41:48.156Z,62.50
2018-08-07T22:44:16.691Z,62.60
2018-08-07T22:46:45.166Z,62.10
2018-08-07T22:49:13.684Z,62.10
2018-08-07T22:51:42.480Z,62.00
2018-08-07T22:54:11.284Z,61.70
2018-08-07T22:56:39.708Z,61.70
2018-08-07T22:59:08.325Z,61.70
2018-08-07T23:01:36.783Z,61.90
2018-08-07T23:04:05.528Z,61.90
2018-08-07T23:06:33.908Z,61.70
2018-08-07T23:09:02.486Z,61.80
2018-08-07T23:11:31.372Z,61.50
2018-08-07T23:13:59.752Z,61.30
2018-08-07T23:16:28.232Z,60.70
2018-08-07T23:18:56.710Z,60.50
2018-08-07T23:21:25.415Z,61.00
2018-08-07T23:23:54.096Z,61.10
2018-08-07T23:26:22.856Z,61.10
2018-08-07T23:28:51.188Z,61.10
2018-08-07T23:31:19.771Z,60.80
2018-08-07T23:33:48.259Z,60.70
2018-08-07T23:36:16.870Z,60.90
2018-08-07T23:38:45.215Z,60.30
2018-08-07T23:41:13.674Z,61.10
2018-08-07T23:43:42.332Z,61.70
2018-08-07T23:46:10.700Z,61.40
2018-08-07T23:48:38.984Z,61.30
2018-08-07T23:51:07.562Z,61.90
2018-08-07T23:53:36.347Z,61.50
2018-08-07T23:56:05.304Z,62.40
2018-08-07T23:58:33.971Z,61.90
